Weather observations for the past three days for
Charlevoix, Charlevoix Municipal Airport
Metric (Imperial)
Date Time (edt) Wind (kph) Vis. (km) Weather Sky Cond. Temperature (ºC) Relative Humidity Wind Chill (°C) Heat Index (°C) Pressure Precipitation (cm)
Air Dwpt 6 hour altimeter (cm) sea level (mb) 1 hr 3 hr 6 hr
Max. Min.
04 19:15 E 19 16.09 Overcast OVC039 20 18 88% 76.12 0.0
04 18:55 E 15 16.09 Overcast FEW021 OVC039 21 18 83% 76.12 0.0
04 18:35 E 17 16.09 Overcast BKN021 OVC039 21 18 83% 76.1 0.0
04 18:15 E 15 16.09 Overcast OVC039 21 18 83% 76.1 0.0
04 17:55 E 15 16.09 Overcast FEW022 FEW027 OVC037 21 18 83% 76.1 0.0
04 17:35 E 17 16.09 Overcast SCT023 SCT027 OVC045 21 18 83% 76.1 0.0
04 17:15 E 15 16.09 Overcast BKN023 BKN029 OVC047 21 18 83% 76.1 0.0
04 16:55 E 19 16.09 Overcast OVC023 21 18 83% 76.1 0.0
04 16:35 E 19 16.09 Overcast BKN023 OVC050 21 18 83% 76.1 0.0
04 16:15 E 19 16.09 Overcast SCT025 OVC050 21 18 83% 76.1 0.0
04 15:35 E 17 16.09 Overcast BKN022 OVC060 22 18 78% 76.1 0.0
04 15:15 E 17 16.09 Overcast OVC020 23 18 74% 76.07 0.0
04 14:55 E 15 16.09 Overcast OVC018 22 18 78% 76.1 0.0
04 14:35 E 17 16.09 Overcast OVC020 23 18 74% 76.07 0.0
04 14:15 E 9 16.09 Overcast BKN022 OVC028 22 18 78% 76.1 0.0
04 13:55 E 11 16.09 Overcast OVC028 22 18 22.9 18.2 78% 76.1 0.0
04 13:35 E 15 16.09 Overcast BKN030 BKN041 OVC050 23 18 74% 76.1 0.0
04 13:15 E 19 16.09 Overcast FEW030 SCT041 OVC050 22 18 78% 76.1 0.0
04 12:55 E 15 16.09 Overcast SCT032 OVC046 22 18 78% 76.1 0.0
04 12:35 E 15 16.09 Overcast BKN042 OVC048 21 18 83% 76.12 0.0
04 12:15 E 19 16.09 Overcast BKN011 OVC041 21 17 78% 76.1 0.0
04 11:55 E 17 16.09 Overcast BKN011 BKN021 OVC041 21 17 78% 76.1 0.0
04 11:35 E 22 16.09 Mostly Cloudy BKN016 BKN025 21 17 78% 76.07 0.0
04 11:15 E 17 16.09 Overcast OVC014 20 17 83% 76.15 0.0
04 10:55 E 15 16.09 Overcast BKN014 OVC024 20 17 83% 76.17 0.0
04 10:35 E 15 16.09 Overcast FEW014 OVC024 20 16 78% 76.17 0.0
04 10:15 E 19 16.09 Mostly Cloudy SCT016 BKN026 20 17 83% 76.15 0.0
04 09:55 SE 13 16.09 Partly Cloudy FEW016 SCT026 20 17 83% 76.17 0.0
04 09:35 E 17 16.09 A Few Clouds FEW022 FEW120 19 17 88% 76.12 0.0
04 09:15 E 19 16.09 Mostly Cloudy BKN022 BKN120 19 16 83% 76.12 0.0
04 08:55 E 22 16.09 Partly Cloudy SCT022 19 16 83% 76.12 0.0
04 08:35 E 20 16.09 Partly Cloudy SCT020 19 16 83% 76.1 0.0
04 08:15 E 19 16.09 Mostly Cloudy BKN020 19 16 83% 76.12 0.0
04 07:55 E 15 16.09 Fair CLR 18 16 19.8 17.9 88% 76.1 0.0 0.03
04 07:35 E 15 16.09 Fair CLR 18 17 94% 76.1 0.0
04 07:15 E 22 16.09 Light Rain FEW100 SCT120 18 17 94% 76.05 0.0
04 06:55 NE 19 16.09 Light Rain FEW022 FEW039 OVC110 18 17 94% 76.15 0.0 0.03
04 06:35 NE 22 14.48 Light Rain BKN020 BKN027 OVC039 19 18 94% 76.15 0.0
04 06:15 N 13 16.09 Overcast BKN027 BKN044 OVC110 19 18 94% 76.15 0.0
04 05:55 SE 6 16.09 Mostly Cloudy SCT085 BKN110 19 18 94% 76.1 0.0
04 05:35 S 7 16.09 Partly Cloudy SCT046 SCT100 19 18 94% 76.1 0.0
04 05:15 SE 6 16.09 Overcast OVC046 19 18 94% 76.1 0.0
04 04:55 E 7 16.09 Partly Cloudy SCT046 19 18 94% 76.07 0.0
04 04:35 E 9 16.09 Fair CLR 19 18 94% 76.05 0.0
04 04:15 SE 7 16.09 A Few Clouds FEW048 FEW120 19 18 94% 76.07 0.0
04 03:55 E 7 16.09 Mostly Cloudy BKN048 BKN120 19 18 94% 76.05 0.0
04 03:35 S 7 16.09 Partly Cloudy SCT050 SCT110 19 18 94% 76.1 0.0
04 03:15 SE 7 16.09 Mostly Cloudy BKN050 20 18 88% 76.07 0.0
04 02:55 SE 7 16.09 Overcast OVC050 20 18 88% 76.1 0.0
04 02:35 E 11 16.09 Mostly Cloudy BKN050 20 18 88% 76.07 0.0
04 02:15 E 9 16.09 Partly Cloudy FEW050 FEW090 SCT110 19 18 94% 76.1 0.0
04 01:55 SE 9 16.09 Mostly Cloudy BKN070 BKN090 BKN120 20 18 22 18.1 88% 76.12 0.0
04 01:35 SE 7 16.09 Overcast OVC060 19 17 88% 76.15 0.0
04 01:15 SE 6 16.09 Mostly Cloudy SCT060 BKN090 19 17 88% 76.15 0.0
04 00:55 E 7 16.09 Partly Cloudy SCT090 19 17 88% 76.15 0.0
04 00:35 SE 7 16.09 Partly Cloudy SCT090 19 17 88% 76.15 0.0
04 00:15 SE 6 16.09 Partly Cloudy SCT090 18 17 94% 76.17 0.0
03 23:55 SE 4 16.09 A Few Clouds FEW090 19 17 88% 76.17 0.0
03 23:35 E 6 16.09 A Few Clouds FEW090 19 17 88% 76.15 0.0
03 23:15 E 7 16.09 Partly Cloudy SCT090 18 18 100% 76.15 0.0
03 22:55 E 4 16.09 A Few Clouds FEW100 19 18 94% 76.12 0.0
03 22:35 E 4 16.09 Mostly Cloudy BKN100 19 18 94% 76.12 0.0
03 22:15 SE 4 16.09 Partly Cloudy SCT100 20 18 88% 76.12 0.0
03 21:55 Vrbl 4 16.09 Partly Cloudy SCT100 19 18 94% 76.12 0.0
03 21:35 SW 2 16.09 A Few Clouds FEW100 19 18 94% 76.12 0.0
03 21:15 SW 4 16.09 Mostly Cloudy BKN100 20 18 88% 76.1 0.0
03 20:55 W 2 16.09 Mostly Cloudy BKN100 21 18 83% 76.07 0.0
03 20:35 Vrbl 2 16.09 A Few Clouds FEW100 21 17 78% 76.07 0.0
03 20:15 N 6 16.09 Fair CLR 21 17 78% 76.05 0.0
03 19:55 N 7 16.09 Fair CLR 22 17 25.3 21.5 73% 76.05 0.0
03 19:35 N 6 16.09 Fair CLR 23 17 69% 76.05 0.0
03 19:15 NW 6 16.09 Fair CLR 23 17 69% 76.05 0.0
03 18:55 N 7 16.09 Fair CLR 23 17 69% 76.02 0.0
03 18:35 N 6 16.09 Mostly Cloudy BKN080 23 17 69% 76.02 0.0
03 18:15 N 9 16.09 Overcast OVC080 22 18 78% 76 0.0
03 17:55 N 13 16.09 Mostly Cloudy BKN090 23 18 74% 75.97 0.0
03 17:35 N 19 16.09 Partly Cloudy SCT090 24 16 61% 25 75.95 0.0
03 17:15 NE 15 16.09 Fair CLR 25 14 51% 26 75.95 0.0
03 16:55 NE 17 16.09 Fair CLR 25 16 57% 26 75.97 0.0
03 16:35 NE 13 16.09 Fair CLR 25 16 57% 26 76.02 0.0
03 16:15 NE 13 16.09 Fair CLR 24 17 65% 25 76.02 0.0
03 15:55 N 9 16.09 Fair CLR 23 18 74% 76.05 0.0
03 15:35 N 7 16.09 A Few Clouds FEW043 23 17 69% 76.07 0.0
03 15:15 N 7 16.09 Partly Cloudy SCT045 23 17 69% 76.12 0.0
03 14:55 N 6 16.09 Partly Cloudy SCT045 SCT075 22 17 73% 76.15 0.0
03 14:35 N 7 16.09 Mostly Cloudy BKN075 BKN085 22 17 73% 76.17 0.0
03 14:15 NW 6 16.09 Overcast BKN060 OVC080 22 17 73% 76.23 0.0
03 13:55 N 9 16.09 Overcast OVC080 22 17 23.3 16.8 73% 76.17 0.0
03 13:35 N 13 16.09 Overcast OVC080 22 17 73% 76.15 0.0
03 13:15 E 11 16.09 Mostly Cloudy BKN080 23 15 61% 76.1 0.0
03 12:55 E 11 16.09 Overcast OVC080 23 17 69% 76.07 0.0
03 12:35 E 9 16.09 Mostly Cloudy BKN080 23 16 65% 76.1 0.0
03 12:15 N 11 16.09 Fair CLR 23 17 69% 76.1 0.0
03 11:55 E 9 16.09 Fair CLR 23 17 69% 76.07 0.0
03 11:35 E 11 16.09 Fair CLR 22 17 73% 76.07 0.0
03 11:15 E 9 16.09 A Few Clouds FEW043 FEW100 22 17 73% 76.1 0.0
03 10:55 Vrbl 7 16.09 Fair CLR 22 17 73% 76.12 0.0
03 10:35 E 6 16.09 Fair CLR 21 17 78% 76.1 0.0
03 10:15 E 6 16.09 Fair CLR 21 18 83% 76.1 0.0
03 09:55 E 7 16.09 Fair CLR 21 18 83% 76.1 0.0
03 09:35 E 9 16.09 Partly Cloudy SCT048 20 18 88% 76.1 0.0
03 09:15 E 9 16.09 Mostly Cloudy BKN048 19 18 94% 76.1 0.0
03 08:55 E 11 16.09 Fair CLR 19 17 88% 76.12 0.0
03 08:35 SE 6 16.09 Fair CLR 18 17 94% 76.12 0.0
03 08:15 SE 6 16.09 Partly Cloudy SCT040 18 17 94% 76.12 0.0
03 07:55 S 6 16.09 Mostly Cloudy BKN040 17 17 16.9 15.2 100% 76.12 0.0
03 07:35 SE 6 16.09 Fair CLR 16 16 100% 76.1 0.0
03 07:15 SE 6 16.09 Fair CLR 17 16 94% 76.1 0.0
03 06:55 SE 4 16.09 A Few Clouds FEW050 16 16 100% 76.07 0.0
03 06:35 SE 6 16.09 Mostly Cloudy SCT006 BKN050 17 17 100% 76.07 0.0
03 06:15 SE 6 16.09 Partly Cloudy SCT006 16 16 100% 76.07 0.0
03 05:55 SE 4 16.09 A Few Clouds FEW049 17 16 94% 76.07 0.0
03 05:35 SE 6 16.09 Partly Cloudy SCT049 16 16 100% 76.07 0.0
03 05:15 SE 4 16.09 Fair CLR 17 16 94% 76.07 0.0
03 04:55 SE 6 16.09 A Few Clouds FEW050 16 16 100% 76.05 0.0
03 04:35 SE 2 16.09 Partly Cloudy SCT050 17 16 94% 76.05 0.0
03 04:15 SE 4 16.09 Mostly Cloudy BKN055 16 16 100% 76.07 0.0
03 03:55 SE 4 16.09 Fair CLR 16 15 94% 76.07 0.0
03 03:35 S 4 16.09 Fair CLR 16 15 94% 76.05 0.0
03 03:15 E 4 16.09 Fair CLR 16 16 100% 76.02 0.0
03 02:55 SE 2 16.09 Fair CLR 16 15 94% 76.02 0.0
03 02:35 SE 2 16.09 Fair CLR 16 15 94% 76.02 0.0
03 02:15 S 6 16.09 Fair CLR 16 15 94% 76.05 0.0
03 01:55 Calm 16.09 Fair CLR 16 16 22 16 100% 76.02 0.0
03 01:35 E 2 16.09 Fair CLR 16 16 100% 76.02 0.0
03 01:15 S 2 16.09 Fair CLR 16 16 100% 76.05 0.0
03 00:55 S 2 16.09 Fair CLR 16 15 94% 76.02 0.0
03 00:35 S 2 16.09 Fair CLR 16 16 100% 76.02 0.0
03 00:15 SW 2 16.09 Fair CLR 17 16 94% 76.02 0.0
02 23:55 S 2 16.09 Fair CLR 17 16 94% 76.02 0.0
02 23:35 N 4 16.09 Fair CLR 17 16 94% 76 0.0
02 23:15 S 2 16.09 Fair CLR 17 16 94% 76 0.0
02 22:55 SW 2 16.09 Fair CLR 17 17 100% 76 0.0
02 22:35 SW 4 16.09 Fair CLR 18 17 94% 76 0.0
02 22:15 S 4 16.09 Fair CLR 18 17 94% 76 0.0
02 21:55 SE 2 16.09 Partly Cloudy SCT095 19 17 88% 75.97 0.0
02 21:35 S 2 16.09 Mostly Cloudy BKN095 19 17 88% 75.97 0.0
02 21:15 Calm 16.09 A Few Clouds FEW095 19 18 94% 75.97 0.0
02 20:55 SW 4 16.09 Fair CLR 19 17 88% 75.95 0.0
02 20:35 Calm 16.09 Fair CLR 20 17 83% 75.95 0.0
02 20:15 N 4 16.09 Fair CLR 21 17 78% 75.95 0.0
02 19:55 N 4 16.09 A Few Clouds FEW100 22 16 25.4 21.7 69% 75.95 0.0
02 19:35 NW 7 16.09 Fair CLR 22 17 73% 75.97 0.0
02 19:15 W 7 16.09 Fair CLR 23 17 69% 75.95 0.0
02 18:55 NW 7 16.09 Fair CLR 23 17 69% 75.95 0.0
02 18:35 W 9 16.09 Fair CLR 23 17 69% 75.97 0.0
02 18:15 W 11 16.09 Fair CLR 23 17 69% 75.95 0.0
02 17:55 NW 9 16.09 Fair CLR 23 17 69% 75.97 0.0
02 17:35 W 11 16.09 Fair CLR 24 17 65% 25 75.97 0.0
02 17:15 W 11 16.09 Fair CLR 24 17 65% 25 75.97 0.0
02 16:55 W 9 16.09 Fair CLR 24 17 65% 25 75.95 0.0
02 16:35 NW 9 16.09 Fair CLR 24 17 65% 25 75.97 0.0
02 16:15 W 11 16.09 Fair CLR 24 17 65% 25 76 0.0
02 15:55 NW 11 16.09 Fair CLR 24 17 65% 25 76 0.0
02 15:35 W 13 16.09 Fair CLR 24 17 65% 25 76.02 0.0
02 15:15 W 15 16.09 Fair CLR 24 17 65% 25 76.02 0.0
02 14:55 NW 19 16.09 Fair CLR 25 17 61% 26 76.02 0.0
02 14:35 W 15 16.09 Fair CLR 25 17 61% 26 76.02 0.0
02 14:15 W 13 16.09 Fair CLR 25 17 61% 26 76.02 0.0
02 13:55 W 11 16.09 Fair CLR 24 17 24.4 19.3 65% 25 76.02 0.0
02 13:35 W 17 16.09 Fair CLR 24 18 69% 25 76.02 0.0
02 13:15 SW 11 16.09 Fair CLR 23 17 69% 76.02 0.0
02 12:55 S 9 16.09 Fair CLR 22 18 78% 76 0.0
02 12:35 SW 9 16.09 Fair CLR 22 18 78% 76 0.0
02 12:15 SW 7 16.09 Fair CLR 22 18 78% 76.02 0.0
02 11:55 W 9 16.09 Fair CLR 22 18 78% 76 0.0
02 11:35 W 13 16.09 Fair CLR 21 19 88% 76 0.0
02 11:15 W 15 16.09 Light Rain FEW036 SCT070 BKN085 21 19 88% 76.02 0.0
02 10:55 W 19 16.09 Light Rain FEW055 SCT070 BKN090 21 19 88% 76.07 0.0
02 10:35 W 19 16.09 Fair CLR 21 19 88% 76.05 0.0
02 10:15 W 6 16.09 Fair CLR 21 19 88% 75.97 0.0
02 09:55 SW 7 16.09 A Few Clouds FEW110 20 19 94% 75.92 0.0 0.05
02 09:35 SE 15 16.09 Light Rain FEW049 SCT090 BKN110 20 18 88% 75.79 0.0
02 09:15 NW 9 16.09 Light Rain BKN100 BKN110 20 18 88% 75.97 0.0
02 08:55 W 22 16.09 Rain BKN110 20 18 88% 76.12 0.0 0.1
02 08:35 W 28 G 37 16.09 Light Rain FEW110 21 19 88% 76.17 0.0
02 08:15 W 20 16.09 A Few Clouds FEW100 21 19 88% 76.15 0.0
02 07:55 W 15 16.09 A Few Clouds FEW100 21 20 24.4 19.4 94% 76.07 0.0
02 07:35 W 7 16.09 Fair CLR 20 19 94% 76 0.0
02 07:15 SW 9 16.09 Fair CLR 20 19 94% 75.97 0.0
02 06:55 NE 2 8.05 Fog/Mist CLR 20 20 100% 75.9 0.0
02 06:35 W 2 9.66 Fog/Mist CLR 20 20 100% 75.92 0.0
02 06:15 W 2 12.87 Fair CLR 20 20 100% 75.92 0.0
02 05:55 SW 7 11.27 Fog/Mist CLR 20 20 100% 75.95 0.0
02 05:35 SW 11 8.05 Fog/Mist CLR 20 20 100% 75.95 0.0
02 05:15 SW 7 6.44 Fog/Mist CLR 20 20 100% 75.92 0.0
02 04:55 W 4 8.05 Fog/Mist CLR 20 20 100% 75.9 0.0
02 04:35 W 6 8.05 Fog/Mist CLR 21 21 100% 75.9 0.0
02 04:15 W 6 9.66 Fog/Mist CLR 21 21 100% 75.9 0.0
02 03:55 W 11 9.66 Fog/Mist CLR 22 21 94% 75.9 0.0
02 03:35 W 15 12.87 Fair CLR 22 22 100% 75.92 0.0
02 03:15 W 15 12.87 Partly Cloudy SCT010 SCT013 23 22 94% 75.92 0.0
02 02:55 W 19 16.09 Fair CLR 23 22 94% 75.92 0.0
02 02:35 W 19 16.09 A Few Clouds FEW060 24 22 89% 24 75.9 0.0
02 02:15 W 17 16.09 A Few Clouds FEW060 24 23 94% 23 75.87 0.0
02 01:55 SW 11 16.09 Partly Cloudy SCT060 24 23 27 22.8 94% 23 75.87 0.0
02 01:35 SW 11 16.09 Partly Cloudy SCT060 24 23 94% 23 75.87 0.0
02 01:15 SW 11 16.09 Fair CLR 24 23 94% 23 75.84 0.0
02 00:55 SW 9 16.09 Fair CLR 24 23 94% 23 75.87 0.0
02 00:35 S 9 16.09 Fair CLR 24 23 94% 23 75.87 0.0
02 00:15 S 9 16.09 Fair CLR 24 23 94% 23 75.87 0.0
01 23:55 SW 11 16.09 Fair CLR 24 23 94% 23 75.87 0.0
01 23:35 SW 9 16.09 Fair CLR 24 23 94% 23 75.87 0.0
01 23:15 S 9 16.09 Fair CLR 24 23 94% 23 75.9 0.0
01 22:55 S 7 16.09 Fair CLR 23 22 94% 75.9 0.0
01 22:35 S 4 14.48 Fair CLR 23 22 94% 75.9 0.0
01 22:15 S 6 11.27 Fair CLR 23 23 100% 75.9 0.0
01 21:55 SW 6 12.87 Fair CLR 23 23 100% 75.9 0.0
01 21:35 SW 7 16.09 Fair CLR 23 23 100% 75.9 0.0
01 21:15 W 9 16.09 Fair CLR 24 23 94% 23 75.9 0.0
01 20:55 W 6 16.09 Fair CLR 24 22 89% 24 75.9 0.0
01 20:35 W 7 16.09 Fair CLR 25 22 83% 26 75.9 0.0
01 20:15 SW 6 16.09 Fair CLR 26 22 79% 28 75.9 0.0
01 19:55 SW 7 16.09 Fair CLR 27 22 30.1 25.7 74% 29 75.87 0.0
01 19:35 SW 7 16.09 Fair CLR 28 22 70% 31 75.87 0.0
Date Time (edt) Wind (kph) Vis. (km) Weather Sky Cond. Air Dwpt Max. Min. Relative Humidity Wind Chill (°C) Heat Index (°C) altimeter (cm) sea level (mb) 1 hr 3 hr 6 hr
6 hour
Temperature (ºC) Pressure Precipitation (cm)